Accueil
METAR-TAF:

METAR-TAF

Aéroports :

Aéroport de Kirkwall

Kirkwall, Écosse

latitude: 58-57N, longitude: 002-54W, altitude: 21 m

Observation

Le bulletin a été fait il y a 25 minutes, à 09:20 UTC
Vent 17 kt de sud
Température 9°C
Humidité 76%
Pression 1021 hPa
Visibilité 10 km ou plus
pas de nuages en-dessous de 1500 mètres et pas de cumulonimbus.

METAR: EGPA 230920Z 17017KT CAVOK 09/05 Q1021

Heure: 09:45 (09:45 UTC)

Prévision

Le bulletin a été fait il y a 1 heure et 44 minutes, à 08:01 UTC
Prévision valable du 23 à 09 UTC au 23 à 18 UTC
Vent 15 kt de sud
Visibilité 10 km ou plus
Quelques nuages à une hauteur de 3000 ft
Temporairement
du 23 à 09 UTC au 23 à 15 UTC
Vent 18 kt de sud avec des rafales jusqu'à 32 kt
Probabilité 30% :
Temporairement
du 23 à 13 UTC au 23 à 16 UTC
Visibilité: 8000 m
pluie faible

TAF: EGPA 230801Z 2309/2318 18015KT 9999 FEW030 TEMPO 2309/2315 18018G32KT PROB30 TEMPO 2313/2316 8000 -RA

Observations et prévisions météorologiques de plus de 4000 aéroports (messages METAR et TAF).

Les stations disponibles sont représentées par des disques jaunes et rouges sur la carte.

Passer la souris dessus pour voir le nom de la station.

Cliquer dessus pour voir les observations et prévisions météorologiques.

Pour changer de carte: cliquez sur les boutons verts avec une croix noire pour zoomer, sur le bouton vert avec un tiret pour effectuer un zoom arrière, ou sur les flèches vertes pour les cartes adjacentes.


METAR-TAF: